createdAt,value
2018-09-21T00:00:52.938Z,61.70
2018-09-21T00:03:21.198Z,61.88
2018-09-21T00:05:49.979Z,61.77
2018-09-21T00:08:18.206Z,61.54
2018-09-21T00:10:46.546Z,62.01
2018-09-21T00:13:14.802Z,61.82
2018-09-21T00:15:43.081Z,61.69
2018-09-21T00:18:11.369Z,61.33
2018-09-21T00:20:39.619Z,61.62
2018-09-21T00:23:07.843Z,61.52
2018-09-21T00:25:36.320Z,61.53
2018-09-21T00:28:04.651Z,61.47
2018-09-21T00:30:32.882Z,61.27
2018-09-21T00:33:01.122Z,61.35
2018-09-21T00:35:29.338Z,61.08
2018-09-21T00:37:57.674Z,61.04
2018-09-21T00:40:25.915Z,61.34
2018-09-21T00:42:54.197Z,61.09
2018-09-21T00:45:22.462Z,61.07
2018-09-21T00:47:50.728Z,61.35
2018-09-21T00:50:18.955Z,61.26
2018-09-21T00:52:47.203Z,61.04
2018-09-21T00:55:15.453Z,60.99
2018-09-21T00:57:43.743Z,61.34
2018-09-21T01:00:12.218Z,61.45
2018-09-21T01:02:40.746Z,60.91
2018-09-21T01:05:08.998Z,60.86
2018-09-21T01:07:37.212Z,61.10
2018-09-21T01:10:05.526Z,61.23
2018-09-21T01:12:33.746Z,60.90
2018-09-21T01:15:01.994Z,60.75
2018-09-21T01:17:30.402Z,60.91
2018-09-21T01:19:58.678Z,61.58
2018-09-21T01:22:26.903Z,61.72
2018-09-21T01:24:55.244Z,62.23
2018-09-21T01:27:23.461Z,62.25
2018-09-21T01:29:51.767Z,62.38
2018-09-21T01:32:20.015Z,61.96
2018-09-21T01:34:48.749Z,61.48
2018-09-21T01:37:16.990Z,61.58
2018-09-21T01:39:45.246Z,61.23
2018-09-21T01:42:13.547Z,60.79
2018-09-21T01:44:41.791Z,60.40
2018-09-21T01:47:10.322Z,60.79
2018-09-21T01:49:38.549Z,60.50
2018-09-21T01:52:06.856Z,60.40
2018-09-21T01:54:35.257Z,60.17
2018-09-21T01:57:03.550Z,60.37
2018-09-21T01:59:31.786Z,60.11
2018-09-21T02:02:00.295Z,59.87
2018-09-21T02:04:33.819Z,60.18
2018-09-21T02:07:02.106Z,60.20
2018-09-21T02:09:30.372Z,60.24
2018-09-21T02:11:58.599Z,59.73
2018-09-21T02:14:26.882Z,59.93
2018-09-21T02:16:55.270Z,60.16
2018-09-21T02:19:23.522Z,59.76
2018-09-21T02:21:52.078Z,60.44
2018-09-21T02:24:21.134Z,60.31
2018-09-21T02:26:49.713Z,60.39
2018-09-21T02:29:18.311Z,60.04
2018-09-21T02:31:47.102Z,59.79
2018-09-21T02:34:15.458Z,59.91
2018-09-21T02:36:43.940Z,59.54
2018-09-21T02:39:12.146Z,60.02
2018-09-21T02:41:40.462Z,59.54
2018-09-21T02:44:08.866Z,59.82
2018-09-21T02:46:43.694Z,59.62
2018-09-21T02:49:12.074Z,59.46
2018-09-21T02:51:40.328Z,59.65
2018-09-21T02:54:08.582Z,59.85
2018-09-21T02:56:37.328Z,59.62
2018-09-21T02:59:05.682Z,59.56
2018-09-21T03:01:33.914Z,59.77
2018-09-21T03:04:02.418Z,59.38
2018-09-21T03:06:30.646Z,59.85
2018-09-21T03:08:58.878Z,59.62
2018-09-21T03:11:27.186Z,59.53
2018-09-21T03:13:55.411Z,59.86
2018-09-21T03:16:23.702Z,59.67
2018-09-21T03:18:52.015Z,59.77
2018-09-21T03:21:20.266Z,59.68
2018-09-21T03:23:49.410Z,59.95
2018-09-21T03:26:17.782Z,59.42
2018-09-21T03:28:46.366Z,59.48
2018-09-21T03:31:14.583Z,59.79
2018-09-21T03:33:43.426Z,59.50
2018-09-21T03:36:11.678Z,59.48
2018-09-21T03:38:39.910Z,59.39
2018-09-21T03:41:08.175Z,59.50
2018-09-21T03:43:36.419Z,59.37
2018-09-21T03:46:04.668Z,59.74
2018-09-21T03:48:32.943Z,59.50
2018-09-21T03:51:01.166Z,59.53
2018-09-21T03:53:29.418Z,59.33
2018-09-21T03:55:57.704Z,59.59
2018-09-21T03:58:26.038Z,59.77
2018-09-21T04:00:54.349Z,59.56
2018-09-21T04:03:22.770Z,59.49
2018-09-21T04:05:51.686Z,59.57
2018-09-21T04:08:19.955Z,59.67
2018-09-21T04:10:48.284Z,59.69
2018-09-21T04:13:16.617Z,59.76
2018-09-21T04:15:44.859Z,59.85
2018-09-21T04:18:13.394Z,60.03
2018-09-21T04:20:41.722Z,59.72
2018-09-21T04:23:10.028Z,59.47
2018-09-21T04:25:38.854Z,59.64
2018-09-21T04:28:07.085Z,59.80
2018-09-21T04:30:35.310Z,59.93
2018-09-21T04:33:03.562Z,60.02
2018-09-21T04:35:31.778Z,60.51
2018-09-21T04:38:00.010Z,60.13
2018-09-21T04:40:28.319Z,60.70
2018-09-21T04:42:56.646Z,60.90
2018-09-21T04:45:24.882Z,61.13
2018-09-21T04:47:53.317Z,60.84
2018-09-21T04:50:21.666Z,61.20
2018-09-21T04:52:49.895Z,61.65
2018-09-21T04:55:18.250Z,61.50
2018-09-21T04:57:46.494Z,61.99
2018-09-21T05:00:14.779Z,62.14
2018-09-21T05:02:43.175Z,62.31
2018-09-21T05:05:11.464Z,62.82
2018-09-21T05:07:39.687Z,62.85
2018-09-21T05:10:07.989Z,63.12
2018-09-21T05:12:36.210Z,63.21
2018-09-21T05:15:04.846Z,63.43
2018-09-21T05:17:33.244Z,63.72
2018-09-21T05:20:01.595Z,63.77
2018-09-21T05:22:29.819Z,63.60
2018-09-21T05:24:59.430Z,63.87
2018-09-21T05:27:27.808Z,63.85
2018-09-21T05:29:56.009Z,64.13
2018-09-21T05:32:25.260Z,64.60
2018-09-21T05:34:53.526Z,64.34
2018-09-21T05:37:21.788Z,64.44
2018-09-21T05:39:50.094Z,64.09
2018-09-21T05:42:18.323Z,64.03
2018-09-21T05:44:47.238Z,64.07
2018-09-21T05:47:15.586Z,63.54
2018-09-21T05:49:43.908Z,63.48
2018-09-21T05:52:12.298Z,63.29
2018-09-21T05:54:40.563Z,62.41
2018-09-21T05:57:08.824Z,62.51
2018-09-21T05:59:37.146Z,61.84
2018-09-21T06:02:05.483Z,61.36
2018-09-21T06:04:33.854Z,61.23
2018-09-21T06:07:02.224Z,60.75
2018-09-21T06:09:30.527Z,60.22
2018-09-21T06:11:58.798Z,60.22
2018-09-21T06:14:27.047Z,59.98
2018-09-21T06:16:55.319Z,59.57
2018-09-21T06:19:23.692Z,59.62
2018-09-21T06:21:52.595Z,59.34
2018-09-21T06:24:20.899Z,58.96
2018-09-21T06:26:49.178Z,59.02
2018-09-21T06:29:17.439Z,58.86
2018-09-21T06:31:45.768Z,58.83
2018-09-21T06:34:13.994Z,58.81
2018-09-21T06:36:42.252Z,58.95
2018-09-21T06:39:11.839Z,58.32
2018-09-21T06:41:40.423Z,57.96
2018-09-21T06:44:09.214Z,58.10
2018-09-21T06:46:37.480Z,57.80
2018-09-21T06:49:06.119Z,57.57
2018-09-21T06:51:34.531Z,57.31
2018-09-21T06:54:02.884Z,57.53
2018-09-21T06:56:31.106Z,56.97
2018-09-21T06:58:59.355Z,56.97
2018-09-21T07:01:27.769Z,56.56
2018-09-21T07:03:55.955Z,56.25
2018-09-21T07:06:24.258Z,56.64
2018-09-21T07:08:53.550Z,56.40
2018-09-21T07:11:21.902Z,55.98
2018-09-21T07:13:50.335Z,55.87
2018-09-21T07:16:18.625Z,55.56
2018-09-21T07:18:46.900Z,55.66
2018-09-21T07:21:15.234Z,55.49
2018-09-21T07:23:43.715Z,55.27
2018-09-21T07:26:11.958Z,55.45
2018-09-21T07:28:40.243Z,54.97
2018-09-21T07:31:08.636Z,54.66
2018-09-21T07:33:37.000Z,54.20
2018-09-21T07:36:05.283Z,54.24
2018-09-21T07:38:33.599Z,53.86
2018-09-21T07:41:01.959Z,54.13
2018-09-21T07:43:30.207Z,53.62
2018-09-21T07:45:58.655Z,53.71
2018-09-21T07:48:26.969Z,54.20
2018-09-21T07:50:55.239Z,54.01
2018-09-21T07:53:23.497Z,53.81
2018-09-21T07:55:51.738Z,54.03
2018-09-21T07:58:20.069Z,53.78
2018-09-21T08:00:48.628Z,53.52
2018-09-21T08:03:16.929Z,53.58
2018-09-21T08:05:45.206Z,53.42
2018-09-21T08:08:13.466Z,53.25
2018-09-21T08:10:41.860Z,53.01
2018-09-21T08:13:10.121Z,52.99
2018-09-21T08:15:38.444Z,52.52
2018-09-21T08:18:06.694Z,52.45
2018-09-21T08:20:34.963Z,52.36
2018-09-21T08:23:03.359Z,52.52
2018-09-21T08:25:31.609Z,51.88
2018-09-21T08:27:59.997Z,52.29
2018-09-21T08:30:28.269Z,52.17
2018-09-21T08:32:56.517Z,52.03
2018-09-21T08:35:24.748Z,51.71
2018-09-21T08:37:53.028Z,52.11
2018-09-21T08:40:21.257Z,52.31
2018-09-21T08:42:49.607Z,51.60
2018-09-21T08:45:17.870Z,51.44
2018-09-21T08:47:46.203Z,50.78
2018-09-21T08:50:14.419Z,51.31
2018-09-21T08:52:42.676Z,50.90
2018-09-21T08:55:11.044Z,50.05
2018-09-21T08:57:39.282Z,50.61
2018-09-21T09:00:07.626Z,50.59
2018-09-21T09:02:35.855Z,50.52
2018-09-21T09:05:04.175Z,50.03
2018-09-21T09:07:32.653Z,50.16
2018-09-21T09:10:00.887Z,49.43
2018-09-21T09:12:29.129Z,49.75
2018-09-21T09:14:57.475Z,49.13
2018-09-21T09:17:25.847Z,49.58
2018-09-21T09:19:54.110Z,49.14
2018-09-21T09:22:22.485Z,48.78
2018-09-21T09:24:50.867Z,48.33
2018-09-21T09:27:19.075Z,48.84
2018-09-21T09:29:48.146Z,48.59
2018-09-21T09:32:16.388Z,47.72
2018-09-21T09:34:44.599Z,48.22
2018-09-21T09:37:12.888Z,48.67
2018-09-21T09:39:41.243Z,47.79
2018-09-21T09:42:09.500Z,47.50
2018-09-21T09:44:37.905Z,47.24
2018-09-21T09:47:06.416Z,47.43
2018-09-21T09:49:34.842Z,47.45
2018-09-21T09:52:03.108Z,47.59
2018-09-21T09:54:31.387Z,46.76
2018-09-21T09:56:59.686Z,46.44
2018-09-21T09:59:28.005Z,46.47
2018-09-21T10:01:56.224Z,45.75
2018-09-21T10:04:24.445Z,45.99
2018-09-21T10:06:52.799Z,45.81
2018-09-21T10:09:21.144Z,45.89
2018-09-21T10:11:49.427Z,46.37
2018-09-21T10:14:17.749Z,45.29
2018-09-21T10:16:45.972Z,45.48
2018-09-21T10:19:14.226Z,45.09
2018-09-21T10:21:42.479Z,44.72
2018-09-21T10:24:10.782Z,44.15
2018-09-21T10:26:39.021Z,44.04
2018-09-21T10:29:07.401Z,43.44
2018-09-21T10:31:35.633Z,43.32
2018-09-21T10:34:03.881Z,43.52
2018-09-21T10:36:32.173Z,42.54
2018-09-21T10:39:00.561Z,42.38
2018-09-21T10:41:28.857Z,42.34
2018-09-21T10:43:58.370Z,42.33
2018-09-21T10:46:26.618Z,42.58
2018-09-21T10:48:54.882Z,42.38
2018-09-21T10:51:23.227Z,42.53
2018-09-21T10:53:51.466Z,42.25
2018-09-21T10:56:19.725Z,42.98
2018-09-21T10:58:48.330Z,41.97
2018-09-21T11:01:16.570Z,41.63
2018-09-21T11:03:44.955Z,41.53
2018-09-21T11:06:13.369Z,40.43
2018-09-21T11:08:41.807Z,40.04
2018-09-21T11:11:10.195Z,40.11
2018-09-21T11:13:38.518Z,40.26
2018-09-21T11:16:07.991Z,40.45
2018-09-21T11:18:36.260Z,39.99
2018-09-21T11:21:04.603Z,39.78
2018-09-21T11:23:32.919Z,38.61
2018-09-21T11:26:01.208Z,37.64
2018-09-21T11:28:29.509Z,37.23
2018-09-21T11:30:57.882Z,37.42
2018-09-21T11:33:26.115Z,36.10
2018-09-21T11:35:54.528Z,36.23
2018-09-21T11:38:22.775Z,36.27
2018-09-21T11:40:51.096Z,35.55
2018-09-21T11:43:19.469Z,35.51
2018-09-21T11:45:47.863Z,34.43
2018-09-21T11:48:16.187Z,34.58
2018-09-21T11:50:44.501Z,35.51
2018-09-21T11:53:13.671Z,35.20
2018-09-21T11:55:43.258Z,35.99
2018-09-21T11:58:11.607Z,37.25
2018-09-21T12:00:40.200Z,36.61
2018-09-21T12:03:08.506Z,36.10
2018-09-21T12:05:36.821Z,36.72
2018-09-21T12:08:05.155Z,35.61
2018-09-21T12:10:33.412Z,35.71
2018-09-21T12:13:01.918Z,35.52
2018-09-21T12:15:30.146Z,36.34
2018-09-21T12:17:58.555Z,36.77
2018-09-21T12:20:27.066Z,36.51
2018-09-21T12:22:55.365Z,35.23
2018-09-21T12:25:23.706Z,35.47
2018-09-21T12:27:52.215Z,36.34
2018-09-21T12:30:20.535Z,35.35
2018-09-21T12:32:48.722Z,37.05
2018-09-21T12:35:17.138Z,36.80
2018-09-21T12:37:45.399Z,36.13
2018-09-21T12:40:13.646Z,36.85
2018-09-21T12:42:42.663Z,37.08
2018-09-21T12:45:10.835Z,35.16
2018-09-21T12:47:39.116Z,34.97
2018-09-21T12:50:07.907Z,33.50
2018-09-21T12:52:36.169Z,33.10
2018-09-21T12:55:04.398Z,32.29
2018-09-21T12:57:32.799Z,33.70
2018-09-21T13:00:01.111Z,34.06
2018-09-21T13:02:29.376Z,34.01
2018-09-21T13:04:57.779Z,34.54
2018-09-21T13:07:27.008Z,33.67
2018-09-21T13:09:55.261Z,32.86
2018-09-21T13:12:23.635Z,32.83
2018-09-21T13:14:52.075Z,33.14
2018-09-21T13:17:20.359Z,34.19
2018-09-21T13:19:48.669Z,33.58
2018-09-21T13:22:16.927Z,33.11
2018-09-21T13:24:45.175Z,33.07
2018-09-21T13:27:13.815Z,31.62
2018-09-21T13:29:42.763Z,32.24
2018-09-21T13:32:11.116Z,32.82
2018-09-21T13:34:39.339Z,32.50
2018-09-21T13:37:07.593Z,32.88
2018-09-21T13:39:35.886Z,32.41
2018-09-21T13:42:04.187Z,31.56
2018-09-21T13:44:32.419Z,32.24
2018-09-21T13:47:00.726Z,32.74
2018-09-21T13:49:28.990Z,30.48
2018-09-21T13:51:57.497Z,31.54
2018-09-21T13:54:25.750Z,31.15
2018-09-21T13:56:54.077Z,30.27
2018-09-21T13:59:22.374Z,30.98
2018-09-21T14:01:51.566Z,30.42
2018-09-21T14:04:20.499Z,30.13
2018-09-21T14:06:48.862Z,29.29
2018-09-21T14:09:17.127Z,29.98
2018-09-21T14:11:45.481Z,29.13
2018-09-21T14:14:13.791Z,29.47
2018-09-21T14:16:42.032Z,29.51
2018-09-21T14:19:10.378Z,30.31
2018-09-21T14:21:38.718Z,29.53
2018-09-21T14:24:07.379Z,29.62
2018-09-21T14:26:35.838Z,30.74
2018-09-21T14:29:04.161Z,30.72
2018-09-21T14:31:36.455Z,30.21
2018-09-21T14:34:04.708Z,31.34
2018-09-21T14:36:32.984Z,30.24
2018-09-21T14:39:01.229Z,29.49
2018-09-21T14:41:29.483Z,29.93
2018-09-21T14:43:57.725Z,30.63
2018-09-21T14:46:26.110Z,30.88
2018-09-21T14:48:54.343Z,31.14
2018-09-21T14:51:22.627Z,30.86
2018-09-21T14:53:50.902Z,31.62
2018-09-21T14:56:19.147Z,31.67
2018-09-21T14:58:47.467Z,31.64
2018-09-21T15:01:15.726Z,31.55
2018-09-21T15:03:43.955Z,31.21
2018-09-21T15:06:12.195Z,31.95
2018-09-21T15:08:40.499Z,32.89
2018-09-21T15:11:09.319Z,32.91
2018-09-21T15:13:37.559Z,32.87
2018-09-21T15:16:06.627Z,33.63
2018-09-21T15:18:34.899Z,33.56
2018-09-21T15:21:03.138Z,33.58
2018-09-21T15:23:31.394Z,33.82
2018-09-21T15:25:59.726Z,33.80
2018-09-21T15:28:28.921Z,33.88
2018-09-21T15:30:57.183Z,33.62
2018-09-21T15:33:25.432Z,34.08
2018-09-21T15:35:53.759Z,33.22
2018-09-21T15:38:22.030Z,33.84
2018-09-21T15:40:50.271Z,33.89
2018-09-21T15:43:18.568Z,34.23
2018-09-21T15:45:46.754Z,34.51
2018-09-21T15:48:14.967Z,34.45
2018-09-21T15:50:43.299Z,34.27
2018-09-21T15:53:11.563Z,34.58
2018-09-21T15:55:39.859Z,34.66
2018-09-21T15:58:08.087Z,34.66
2018-09-21T16:00:36.739Z,34.95
2018-09-21T16:03:05.005Z,34.97
2018-09-21T16:05:33.253Z,35.21
2018-09-21T16:08:01.607Z,36.94
2018-09-21T16:10:29.928Z,38.61
2018-09-21T16:12:58.207Z,39.53
2018-09-21T16:15:26.810Z,40.04
2018-09-21T16:17:55.117Z,40.52
2018-09-21T16:20:23.359Z,40.48
2018-09-21T16:22:51.670Z,40.99
2018-09-21T16:25:19.948Z,41.52
2018-09-21T16:27:48.210Z,42.18
2018-09-21T16:30:16.547Z,42.62
2018-09-21T16:32:44.845Z,42.81
2018-09-21T16:35:13.121Z,43.81
2018-09-21T16:37:41.493Z,44.09
2018-09-21T16:40:09.851Z,44.35
2018-09-21T16:42:38.131Z,45.15
2018-09-21T16:45:06.924Z,45.41
2018-09-21T16:47:35.986Z,45.44
2018-09-21T16:50:04.642Z,44.79
2018-09-21T16:52:33.131Z,44.54
2018-09-21T16:55:01.491Z,44.42
2018-09-21T16:57:29.762Z,44.46
2018-09-21T16:59:58.042Z,44.09
2018-09-21T17:02:26.306Z,43.92
2018-09-21T17:04:54.772Z,44.10
2018-09-21T17:07:23.040Z,43.64
2018-09-21T17:09:51.329Z,43.50
2018-09-21T17:12:20.571Z,43.13
2018-09-21T17:14:49.038Z,42.88
2018-09-21T17:17:17.388Z,43.19
2018-09-21T17:19:45.739Z,42.51
2018-09-21T17:22:14.036Z,42.54
2018-09-21T17:24:42.298Z,42.34
2018-09-21T17:27:10.540Z,42.02
2018-09-21T17:29:38.882Z,42.49
2018-09-21T17:32:07.140Z,42.97
2018-09-21T17:34:35.399Z,43.32
2018-09-21T17:37:03.711Z,43.57
2018-09-21T17:39:32.070Z,43.60
2018-09-21T17:42:00.314Z,43.81
2018-09-21T17:44:28.594Z,43.95
2018-09-21T17:46:56.905Z,43.94
2018-09-21T17:49:25.119Z,44.42
2018-09-21T17:51:54.089Z,44.06
2018-09-21T17:54:22.515Z,44.16
2018-09-21T17:56:50.834Z,44.23
2018-09-21T17:59:19.201Z,43.95
2018-09-21T18:01:47.466Z,43.65
2018-09-21T18:04:15.722Z,44.39
2018-09-21T18:06:44.098Z,46.13
2018-09-21T18:09:12.332Z,47.97
2018-09-21T18:11:40.659Z,47.89
2018-09-21T18:14:09.006Z,48.17
2018-09-21T18:16:37.346Z,47.96
2018-09-21T18:19:05.595Z,47.68
2018-09-21T18:21:34.007Z,47.72
2018-09-21T18:24:02.259Z,48.02
2018-09-21T18:26:30.536Z,48.12
2018-09-21T18:28:58.841Z,47.69
2018-09-21T18:31:27.198Z,46.96
2018-09-21T18:33:55.651Z,47.73
2018-09-21T18:36:24.013Z,47.27
2018-09-21T18:38:52.275Z,47.17
2018-09-21T18:41:20.631Z,47.20
2018-09-21T18:43:48.927Z,48.63
2018-09-21T18:46:17.592Z,49.71
2018-09-21T18:48:46.107Z,50.35
2018-09-21T18:51:14.569Z,51.20
2018-09-21T18:53:42.945Z,52.26
2018-09-21T18:56:11.266Z,52.96
2018-09-21T18:58:39.751Z,53.92
2018-09-21T19:01:08.123Z,53.84
2018-09-21T19:03:36.450Z,55.22
2018-09-21T19:06:04.870Z,55.39
2018-09-21T19:08:33.190Z,55.84
2018-09-21T19:11:01.503Z,56.35
2018-09-21T19:13:29.831Z,56.73
2018-09-21T19:15:58.117Z,57.05
2018-09-21T19:18:26.404Z,57.33
2018-09-21T19:20:54.680Z,57.60
2018-09-21T19:23:23.263Z,57.59
2018-09-21T19:25:51.580Z,58.49
2018-09-21T19:28:20.239Z,59.09
2018-09-21T19:30:49.727Z,58.58
2018-09-21T19:33:18.266Z,58.73
2018-09-21T19:35:47.215Z,59.06
2018-09-21T19:38:15.899Z,59.12
2018-09-21T19:40:44.741Z,58.70
2018-09-21T19:43:14.455Z,58.06
2018-09-21T19:45:43.133Z,57.62
2018-09-21T19:48:11.425Z,56.84
2018-09-21T19:50:39.909Z,55.17
2018-09-21T19:53:08.398Z,54.71
2018-09-21T19:55:37.649Z,54.28
2018-09-21T19:58:06.887Z,53.92
2018-09-21T20:00:35.303Z,53.58
2018-09-21T20:03:03.805Z,54.03
2018-09-21T20:05:32.475Z,54.07
2018-09-21T20:08:00.919Z,53.73
2018-09-21T20:10:29.323Z,53.99
2018-09-21T20:12:58.083Z,54.43
2018-09-21T20:15:26.403Z,55.04
2018-09-21T20:17:54.725Z,55.37
2018-09-21T20:20:23.187Z,55.93
2018-09-21T20:22:51.662Z,56.54
2018-09-21T20:25:20.217Z,56.91
2018-09-21T20:27:48.648Z,57.34
2018-09-21T20:30:22.463Z,57.24
2018-09-21T20:32:55.993Z,57.82
2018-09-21T20:35:30.982Z,57.95
2018-09-21T20:37:59.360Z,58.09
2018-09-21T20:40:28.379Z,58.12
2018-09-21T20:42:56.762Z,58.37
2018-09-21T20:45:25.211Z,58.90
2018-09-21T20:47:53.537Z,59.98
2018-09-21T20:50:21.888Z,60.24
2018-09-21T20:52:50.385Z,60.51
2018-09-21T20:55:18.960Z,60.76
2018-09-21T20:57:47.289Z,61.21
2018-09-21T21:00:15.664Z,62.04
2018-09-21T21:02:44.028Z,62.36
2018-09-21T21:05:12.405Z,62.29
2018-09-21T21:07:41.070Z,62.37
2018-09-21T21:10:09.399Z,62.49
2018-09-21T21:12:37.856Z,62.68
2018-09-21T21:15:06.617Z,62.93
2018-09-21T21:17:34.978Z,63.34
2018-09-21T21:20:03.428Z,63.18
2018-09-21T21:22:31.940Z,63.16
2018-09-21T21:25:00.505Z,63.04
2018-09-21T21:27:28.932Z,63.40
2018-09-21T21:29:57.348Z,64.07
2018-09-21T21:32:25.697Z,64.61
2018-09-21T21:34:54.060Z,64.24
2018-09-21T21:37:22.467Z,64.49
2018-09-21T21:39:50.796Z,64.40
2018-09-21T21:42:20.008Z,63.72
2018-09-21T21:44:48.444Z,63.98
2018-09-21T21:47:16.771Z,63.62
2018-09-21T21:49:45.176Z,64.13
2018-09-21T21:52:14.152Z,63.79
2018-09-21T21:54:42.490Z,64.48
2018-09-21T21:57:10.826Z,64.53
2018-09-21T21:59:39.203Z,64.25
2018-09-21T22:02:10.595Z,64.01
2018-09-21T22:04:40.245Z,64.90
2018-09-21T22:07:09.648Z,64.54
2018-09-21T22:09:38.053Z,64.63
2018-09-21T22:12:11.928Z,64.58
2018-09-21T22:14:40.399Z,64.60
2018-09-21T22:17:09.060Z,64.91
2018-09-21T22:19:37.535Z,65.09
2018-09-21T22:22:06.192Z,65.06
2018-09-21T22:24:34.632Z,65.20
2018-09-21T22:27:03.151Z,64.99
2018-09-21T22:29:31.595Z,64.66
2018-09-21T22:31:59.943Z,64.03
2018-09-21T22:34:28.398Z,63.66
2018-09-21T22:36:56.739Z,63.71
2018-09-21T22:39:25.087Z,63.85
2018-09-21T22:41:54.786Z,63.35
2018-09-21T22:44:23.187Z,62.76
2018-09-21T22:46:51.581Z,62.31
2018-09-21T22:49:22.334Z,62.30
2018-09-21T22:51:50.688Z,62.75
2018-09-21T22:54:19.063Z,62.94
2018-09-21T22:56:47.564Z,63.04
2018-09-21T22:59:15.963Z,63.31
2018-09-21T23:01:45.160Z,63.61
2018-09-21T23:04:13.788Z,64.24
2018-09-21T23:06:42.308Z,64.15
2018-09-21T23:09:12.337Z,63.90
2018-09-21T23:11:41.600Z,64.07
2018-09-21T23:14:10.560Z,63.84
2018-09-21T23:16:39.336Z,63.82
2018-09-21T23:19:07.920Z,64.38
2018-09-21T23:21:36.268Z,64.28
2018-09-21T23:24:04.727Z,64.38
2018-09-21T23:26:33.251Z,64.53
2018-09-21T23:29:01.821Z,65.00
2018-09-21T23:31:30.267Z,64.74
2018-09-21T23:33:58.703Z,64.31
2018-09-21T23:36:27.043Z,64.08
2018-09-21T23:38:55.528Z,64.29
2018-09-21T23:41:24.026Z,63.88
2018-09-21T23:43:52.500Z,63.72
2018-09-21T23:46:20.840Z,63.60
2018-09-21T23:48:49.280Z,63.60
2018-09-21T23:51:17.707Z,63.52
2018-09-21T23:53:46.161Z,64.65
2018-09-21T23:56:14.623Z,64.73
2018-09-21T23:58:43.039Z,64.61
